Time;durP1;ratioP1;P1;durP2;ratioP2;P2;SDS_P1;SDS_P2;PMS_P1;PMS_P2;Temp;Humidity;BMP_temperature;BMP_pressure;BME280_temperature;BME280_humidity;BME280_pressure;Samples;Min_cycle;Max_cycle;Signal;HPM_P1;HPM_P2
2023/01/07 00:01:49;;;;;;;9.18;2.03;;;8.50;99.90;;;8.59;100.00;100693.63;4962231;28;20293;-77
2023/01/07 00:04:16;;;;;;;5.32;1.30;;;8.50;99.90;;;8.57;100.00;100676.91;4965811;28;20325;-77
2023/01/07 00:06:46;;;;;;;9.90;2.30;;;8.50;99.90;;;8.56;100.00;100678.66;4967263;28;20287;-78
2023/01/07 00:09:17;;;;;;;7.65;1.77;;;8.50;99.90;;;8.55;100.00;100673.34;4966826;28;20283;-77
2023/01/07 00:11:45;;;;;;;8.23;1.83;;;8.50;99.90;;;8.53;100.00;100669.78;4967287;28;20740;-77
2023/01/07 00:14:13;;;;;;;9.50;2.15;;;8.50;99.90;;;8.55;100.00;100678.63;4963783;28;20320;-77
2023/01/07 00:16:41;;;;;;;11.18;2.50;;;8.50;99.90;;;8.53;100.00;100668.03;4966817;28;20619;-78
2023/01/07 00:19:13;;;;;;;8.60;2.00;;;8.50;99.90;;;8.55;100.00;100662.78;4965259;28;20245;-78
2023/01/07 00:21:41;;;;;;;10.57;3.13;;;8.50;99.90;;;8.56;100.00;100659.31;4962548;28;20302;-79
2023/01/07 00:24:10;;;;;;;5.85;1.42;;;8.50;99.90;;;8.57;100.00;100653.19;4961776;28;20233;-77
2023/01/07 00:26:38;;;;;;;8.07;1.90;;;8.50;99.90;;;8.53;100.00;100649.59;4968598;28;20233;-77
2023/01/07 00:29:07;;;;;;;9.68;2.13;;;8.50;99.90;;;8.52;100.00;100658.34;4961592;28;20244;-77
2023/01/07 00:31:37;;;;;;;11.05;2.47;;;8.50;99.90;;;8.54;100.00;100658.38;4965196;28;20276;-77
2023/01/07 00:34:06;;;;;;;6.28;1.52;;;8.50;99.90;;;8.54;100.00;100654.00;4964361;28;20226;-77
2023/01/07 00:36:38;;;;;;;6.57;1.55;;;8.50;99.90;;;8.54;100.00;100647.84;4964772;28;20230;-77
2023/01/07 00:39:16;;;;;;;7.22;1.83;;;8.50;99.90;;;8.53;100.00;100646.94;4967627;28;20259;-77
2023/01/07 00:42:53;;;;;;;8.50;2.20;;;8.50;99.90;;;8.51;100.00;100639.88;4961969;28;20229;-77
2023/01/07 00:44:32;;;;;;;7.88;1.90;;;8.50;99.90;;;8.53;100.00;100644.31;4967499;28;20237;-77
2023/01/07 00:47:00;;;;;;;5.57;1.30;;;8.50;99.90;;;8.52;100.00;100639.00;4973814;28;20251;-77
2023/01/07 00:49:27;;;;;;;5.00;1.33;;;8.50;99.90;;;8.48;100.00;100635.44;4961808;28;20234;-77
2023/01/07 00:51:54;;;;;;;8.38;1.88;;;8.50;99.90;;;8.51;100.00;100639.88;4962568;28;20323;-81
2023/01/07 00:54:22;;;;;;;6.88;1.55;;;8.50;99.90;;;8.49;100.00;100637.19;4962876;28;20305;-77
2023/01/07 00:56:49;;;;;;;9.13;2.03;;;8.50;99.90;;;8.50;100.00;100628.44;4973494;28;20257;-78
2023/01/07 00:59:16;;;;;;;7.93;1.75;;;8.50;99.90;;;8.48;100.00;100630.16;4969036;28;20232;-76
2023/01/07 01:01:43;;;;;;;10.50;2.42;;;8.40;99.90;;;8.49;100.00;100628.41;4969434;28;20315;-77
2023/01/07 01:04:10;;;;;;;9.57;2.22;;;8.50;99.90;;;8.53;100.00;100624.97;4966771;28;20886;-76
2023/01/07 01:06:37;;;;;;;6.15;1.42;;;8.50;99.90;;;8.49;100.00;100623.13;4966580;28;20220;-78
2023/01/07 01:09:04;;;;;;;9.63;2.17;;;8.50;99.90;;;8.47;100.00;100617.84;4971985;28;20264;-77
2023/01/07 01:11:31;;;;;;;9.88;2.25;;;8.50;99.90;;;8.48;100.00;100613.44;4972107;28;20298;-78
2023/01/07 01:13:58;;;;;;;9.98;2.30;;;8.50;99.90;;;8.48;100.00;100622.25;4963247;28;20249;-76
2023/01/07 01:16:25;;;;;;;10.27;2.28;;;8.50;99.90;;;8.47;100.00;100623.09;4965398;28;20301;-77
2023/01/07 01:18:52;;;;;;;8.45;1.90;;;8.50;99.90;;;8.48;100.00;100619.59;4965172;28;20725;-77
2023/01/07 01:21:20;;;;;;;9.93;2.60;;;8.50;99.90;;;8.47;100.00;100617.84;4967247;28;20229;-78
2023/01/07 01:23:47;;;;;;;8.45;2.03;;;8.50;99.90;;;8.48;100.00;100619.59;4964377;28;20292;-77
2023/01/07 01:26:16;;;;;;;8.50;2.03;;;8.50;99.90;;;8.46;100.00;100620.44;4969907;28;20256;-78
2023/01/07 01:28:44;;;;;;;11.13;2.58;;;8.40;99.90;;;8.40;100.00;100615.94;4966345;28;20296;-77
2023/01/07 01:31:12;;;;;;;7.30;1.67;;;8.40;99.90;;;8.43;100.00;100615.09;4964604;28;20299;-77
2023/01/07 01:33:39;;;;;;;4.93;1.17;;;8.40;99.90;;;8.40;100.00;100621.19;4967576;28;20667;-78
2023/01/07 01:36:09;;;;;;;12.57;2.75;;;8.40;99.90;;;8.39;100.00;100621.16;4967044;28;20309;-77
2023/01/07 01:38:37;;;;;;;8.15;1.95;;;8.40;99.90;;;8.42;100.00;100630.03;4964250;28;20260;-78
2023/01/07 01:41:05;;;;;;;10.20;2.35;;;8.40;99.90;;;8.40;100.00;100629.09;4964410;28;20225;-77
2023/01/07 01:43:36;;;;;;;6.28;1.70;;;8.40;99.90;;;8.40;100.00;100625.59;4962310;28;20237;-77
2023/01/07 01:46:16;;;;;;;7.10;1.60;;;8.40;99.90;;;8.39;100.00;100627.34;4967451;28;20261;-77
2023/01/07 01:48:52;;;;;;;6.82;1.67;;;8.40;99.90;;;8.42;100.00;100626.50;4960206;28;20288;-77
2023/01/07 01:51:23;;;;;;;4.82;1.13;;;8.40;99.90;;;8.41;100.00;100617.72;4968879;28;20256;-77
2023/01/07 01:53:51;;;;;;;3.85;0.93;;;8.40;99.90;;;8.36;100.00;100623.75;4959423;28;20278;-78
2023/01/07 01:56:29;;;;;;;7.15;1.58;;;8.30;99.90;;;8.34;100.00;100621.06;4960748;28;20253;-77
2023/01/07 01:59:07;;;;;;;7.38;1.60;;;8.30;99.90;;;8.32;100.00;100620.13;4956614;28;20308;-77
2023/01/07 02:01:35;;;;;;;5.72;1.42;;;8.30;99.90;;;8.32;100.00;100622.75;4963175;28;20261;-76
2023/01/07 02:04:16;;;;;;;9.95;2.25;;;8.30;99.90;;;8.34;100.00;100623.72;4960369;28;20320;-78
2023/01/07 02:07:15;;;;;;;4.97;1.30;;;8.30;99.90;;;8.32;100.00;100625.38;4962394;28;20328;-77
2023/01/07 02:09:43;;;;;;;8.70;2.03;;;8.30;99.90;;;8.34;100.00;100623.72;4966806;28;20257;-77
2023/01/07 02:12:36;;;;;;;8.50;2.25;;;8.30;99.90;;;8.40;100.00;100630.84;4972168;28;20233;-77
2023/01/07 02:15:18;;;;;;;9.15;2.13;;;8.40;99.90;;;8.42;100.00;100614.22;4973966;28;20252;-78
2023/01/07 02:18:30;;;;;;;12.38;2.63;;;8.40;99.90;;;8.44;100.00;100612.50;4972706;28;20325;-77
2023/01/07 02:21:38;;;;;;;4.35;1.05;;;8.40;99.90;;;8.47;100.00;100596.75;4963499;28;20317;-77
2023/01/07 02:24:27;;;;;;;7.05;1.75;;;8.50;99.90;;;8.48;100.00;100597.63;4948587;28;20275;-77
2023/01/07 02:27:15;;;;;;;6.25;1.45;;;8.50;99.90;;;8.50;100.00;100596.81;4966265;28;20237;-77
2023/01/07 02:30:12;;;;;;;8.75;2.05;;;8.50;99.90;;;8.43;100.00;100584.38;4967044;28;20319;-77
2023/01/07 02:33:35;;;;;;;7.20;1.73;;;8.40;99.90;;;8.42;100.00;100589.59;4960991;28;20256;-77
2023/01/07 02:36:48;;;;;;;4.15;1.15;;;8.40;99.90;;;8.38;100.00;100579.88;4953285;28;20304;-77
2023/01/07 02:40:06;;;;;;;7.05;1.63;;;8.40;99.90;;;8.39;100.00;100582.53;4959868;28;20261;-77
2023/01/07 02:43:04;;;;;;;6.65;1.65;;;8.40;99.90;;;8.40;100.00;100580.78;4952292;28;20260;-77
2023/01/07 02:45:51;;;;;;;10.98;2.53;;;8.40;99.90;;;8.36;100.00;100585.09;4963668;28;20251;-78
2023/01/07 02:48:20;;;;;;;7.60;1.73;;;8.30;99.90;;;8.36;100.00;100579.84;4960329;28;20237;-77
2023/01/07 02:50:47;;;;;;;6.18;1.48;;;8.30;99.90;;;8.37;100.00;100576.34;4963914;28;20237;-77
2023/01/07 02:53:18;;;;;;;4.88;1.20;;;8.40;99.90;;;8.37;100.00;100573.69;4966541;28;20252;-77
2023/01/07 02:56:23;;;;;;;3.28;0.88;;;8.40;99.90;;;8.41;100.00;100578.19;4961443;28;20249;-76
2023/01/07 02:59:06;;;;;;;5.13;1.27;;;8.40;99.90;;;8.45;100.00;100572.13;4961352;28;20237;-76
2023/01/07 03:02:25;;;;;;;4.78;1.17;;;8.40;99.90;;;8.47;100.00;100565.13;4967215;28;20615;-77
2023/01/07 03:05:17;;;;;;;3.97;0.95;;;8.50;99.90;;;8.48;100.00;100558.09;4967387;28;20239;-76
2023/01/07 03:08:11;;;;;;;12.50;2.75;;;8.50;99.90;;;8.47;100.00;100551.94;4955448;28;20244;-80
2023/01/07 03:10:59;;;;;;;8.95;2.13;;;8.50;99.90;;;8.48;100.00;100553.72;4962823;28;20256;-77
2023/01/07 03:13:40;;;;;;;12.00;2.95;;;8.50;99.90;;;8.53;100.00;100549.44;4959007;28;20307;-78
2023/01/07 03:16:12;;;;;;;13.20;3.00;;;8.50;99.90;;;8.51;100.00;100550.25;4960468;28;20261;-82
2023/01/07 03:18:55;;;;;;;8.98;2.15;;;8.50;99.90;;;8.47;100.00;100543.16;4957976;28;20229;-77
2023/01/07 03:21:25;;;;;;;7.38;1.70;;;8.50;99.90;;;8.44;100.00;100541.34;4949730;28;20253;-78
2023/01/07 03:23:56;;;;;;;9.48;2.17;;;8.40;99.90;;;8.38;100.00;100535.06;4970264;28;20270;-76
2023/01/07 03:26:31;;;;;;;9.82;2.67;;;8.40;99.90;;;8.37;100.00;100546.47;4967834;28;20284;-77
2023/01/07 03:29:01;;;;;;;10.93;2.45;;;8.40;99.90;;;8.35;100.00;100549.06;4966961;28;20225;-77
2023/01/07 03:31:30;;;;;;;10.40;2.45;;;8.30;99.90;;;8.33;100.00;100553.41;4962048;28;20225;-76
2023/01/07 03:34:09;;;;;;;10.40;2.42;;;8.30;99.90;;;8.40;100.00;100559.69;4965716;28;20258;-76
2023/01/07 03:36:42;;;;;;;8.52;2.10;;;8.40;99.90;;;8.42;100.00;100552.72;4965421;28;20303;-77
2023/01/07 03:39:11;;;;;;;9.75;2.38;;;8.40;99.90;;;8.42;100.00;100548.34;4961663;28;20589;-78
2023/01/07 03:44:32;;;;;;;9.27;2.17;;;8.40;99.90;;;8.43;100.00;100536.94;4954806;28;20287;-77
2023/01/07 03:47:00;;;;;;;4.28;1.13;;;8.40;99.90;;;8.48;100.00;100531.75;4982818;28;20273;-77
2023/01/07 03:49:27;;;;;;;9.10;2.22;;;8.50;99.90;;;8.51;100.00;100539.72;4966316;28;20673;-77
2023/01/07 03:51:54;;;;;;;8.07;1.90;;;8.50;99.90;;;8.49;100.00;100537.03;4964884;28;20265;-78
2023/01/07 03:54:22;;;;;;;7.88;1.80;;;8.50;99.90;;;8.50;100.00;100533.56;4964976;28;20287;-80
2023/01/07 03:56:49;;;;;;;9.75;2.25;;;8.50;99.90;;;8.48;100.00;100521.22;4967202;28;20253;-77
2023/01/07 03:59:16;;;;;;;7.03;1.80;;;8.50;99.90;;;8.44;100.00;100520.25;4970562;28;20308;-79
2023/01/07 04:01:43;;;;;;;10.20;2.42;;;8.40;99.90;;;8.44;100.00;100512.34;4965505;28;20308;-76
2023/01/07 04:04:11;;;;;;;9.65;2.28;;;8.40;99.90;;;8.46;100.00;100520.28;4963813;28;20226;-81
2023/01/07 04:06:38;;;;;;;8.90;2.03;;;8.40;99.90;;;8.48;100.00;100521.22;4961603;28;20233;-76
2023/01/07 04:09:05;;;;;;;5.05;1.30;;;8.50;99.90;;;8.49;100.00;100520.34;4972140;28;20300;-78
2023/01/07 04:11:32;;;;;;;5.65;1.50;;;8.50;99.90;;;8.51;100.00;100521.25;4971116;28;20232;-77
2023/01/07 04:13:59;;;;;;;9.25;2.15;;;8.50;99.90;;;8.51;100.00;100516.88;4973724;28;20252;-76
2023/01/07 04:16:26;;;;;;;5.38;1.25;;;8.50;99.90;;;8.53;100.00;100516.91;4971399;28;20292;-77
2023/01/07 04:18:54;;;;;;;2.53;0.65;;;8.50;99.90;;;8.52;100.00;100517.78;4965879;28;20316;-77
2023/01/07 04:21:21;;;;;;;11.25;2.72;;;8.50;99.90;;;8.50;100.00;100514.22;4969299;28;20316;-76
2023/01/07 04:23:48;;;;;;;5.82;1.40;;;8.50;99.90;;;8.50;100.00;100507.19;4962863;28;20265;-78
2023/01/07 04:26:15;;;;;;;8.90;2.08;;;8.50;99.90;;;8.50;100.00;100509.84;4968448;28;20328;-77
2023/01/07 04:28:42;;;;;;;12.55;3.00;;;8.50;99.90;;;8.49;100.00;100505.41;4970862;28;20300;-79
2023/01/07 04:31:09;;;;;;;8.50;2.03;;;8.50;99.90;;;8.49;100.00;100496.63;4965517;28;20709;-77
2023/01/07 04:33:36;;;;;;;7.00;1.75;;;8.50;99.90;;;8.45;100.00;100498.31;4969563;28;20233;-79
2023/01/07 04:36:04;;;;;;;9.25;2.25;;;8.50;99.90;;;8.42;100.00;100502.63;4972234;28;20237;-80
2023/01/07 04:38:31;;;;;;;8.30;1.95;;;8.40;99.90;;;8.41;100.00;100498.22;4960951;28;20315;-75
2023/01/07 04:40:58;;;;;;;15.30;3.47;;;8.40;99.90;;;8.39;100.00;100498.19;4973194;28;20254;-75
2023/01/07 04:43:25;;;;;;;8.45;1.90;;;8.40;99.90;;;8.37;100.00;100494.66;4974342;28;20236;-80
2023/01/07 04:45:52;;;;;;;8.52;2.20;;;8.40;99.90;;;8.35;100.00;100493.75;4974456;28;20225;-74
2023/01/07 04:48:19;;;;;;;9.93;2.25;;;8.30;99.90;;;8.33;100.00;100498.09;4967189;28;20308;-74
2023/01/07 04:50:47;;;;;;;7.30;1.98;;;8.30;99.90;;;8.33;100.00;100495.44;4971413;28;20241;-74
2023/01/07 04:53:15;;;;;;;10.77;2.50;;;8.30;99.90;;;8.34;100.00;100495.47;4974056;28;20264;-77
2023/01/07 04:55:42;;;;;;;12.70;2.90;;;8.30;99.90;;;8.33;100.00;100498.97;4970219;28;20252;-79
2023/01/07 04:58:11;;;;;;;8.98;2.15;;;8.30;99.90;;;8.33;100.00;100498.97;4970446;28;20323;-75
2023/01/07 05:00:39;;;;;;;6.50;1.52;;;8.30;99.90;;;8.33;100.00;100498.97;4970478;28;20307;-75
2023/01/07 05:03:06;;;;;;;7.95;1.80;;;8.30;99.90;;;8.33;100.00;100493.72;4970906;28;20276;-74
2023/01/07 05:05:33;;;;;;;8.88;1.95;;;8.30;99.90;;;8.32;100.00;100491.00;4969969;28;20245;-74
2023/01/07 05:08:00;;;;;;;11.00;2.47;;;8.30;99.90;;;8.32;100.00;100491.91;4971860;28;20294;-73
2023/01/07 05:10:27;;;;;;;12.65;2.85;;;8.30;99.90;;;8.32;100.00;100486.63;4966488;28;20277;-73
2023/01/07 05:12:54;;;;;;;8.13;1.92;;;8.30;99.90;;;8.33;100.00;100482.28;4970695;28;20316;-73
2023/01/07 05:15:21;;;;;;;5.25;1.25;;;8.30;99.90;;;8.36;100.00;100492.00;4971652;28;20234;-73
2023/01/07 05:17:48;;;;;;;10.35;2.30;;;8.30;99.90;;;8.37;100.00;100485.84;4963755;28;20253;-73
2023/01/07 05:20:15;;;;;;;10.07;2.38;;;8.30;99.90;;;8.34;100.00;100479.66;4981231;28;20664;-73
2023/01/07 05:22:42;;;;;;;11.50;2.63;;;8.40;99.90;;;8.36;100.00;100478.81;4970026;28;20249;-73
2023/01/07 05:25:09;;;;;;;5.20;1.38;;;8.30;99.90;;;8.31;100.00;100474.31;4970840;28;20232;-73
2023/01/07 05:27:36;;;;;;;12.20;2.70;;;8.30;99.90;;;8.30;100.00;100474.28;4965011;28;20229;-74
2023/01/07 05:30:04;;;;;;;5.40;1.40;;;8.30;99.90;;;8.32;100.00;100475.19;4975014;28;20268;-73
2023/01/07 05:32:31;;;;;;;7.38;1.70;;;8.30;99.90;;;8.30;100.00;100476.91;4967370;28;20236;-74
2023/01/07 05:34:58;;;;;;;11.50;2.72;;;8.30;99.90;;;8.27;100.00;100469.84;4970673;28;20225;-73
2023/01/07 05:37:25;;;;;;;13.55;2.97;;;8.30;99.90;;;8.26;100.00;100470.69;4965837;28;20320;-75
2023/01/07 05:39:52;;;;;;;7.28;1.67;;;8.30;99.90;;;8.27;100.00;100468.97;4962729;28;20253;-76
2023/01/07 05:42:19;;;;;;;9.38;2.15;;;8.30;99.90;;;8.27;100.00;100468.97;4964460;28;20264;-73
2023/01/07 05:44:46;;;;;;;7.50;1.73;;;8.20;99.90;;;8.26;100.00;100459.28;4964566;28;20236;-73
2023/01/07 05:47:13;;;;;;;13.63;3.00;;;8.30;99.90;;;8.25;100.00;100468.03;4962521;28;20356;-74
2023/01/07 05:49:42;;;;;;;9.13;2.10;;;8.30;99.90;;;8.27;100.00;100461.06;4963747;28;20643;-74
2023/01/07 05:52:09;;;;;;;10.95;2.55;;;8.30;99.90;;;8.27;100.00;100461.06;4968320;28;20304;-75
2023/01/07 05:54:36;;;;;;;8.82;2.03;;;8.30;99.90;;;8.26;100.00;100456.66;4968585;28;20256;-75
2023/01/07 05:57:03;;;;;;;11.65;2.60;;;8.30;99.90;;;8.24;100.00;100453.09;4960372;28;20228;-73
2023/01/07 05:59:33;;;;;;;7.88;1.83;;;8.30;99.90;;;8.25;100.00;100450.50;4965683;28;20347;-74
2023/01/07 06:02:01;;;;;;;13.45;3.05;;;8.30;99.90;;;8.23;100.00;100454.84;4967765;28;20233;-73
2023/01/07 06:04:28;;;;;;;12.27;2.70;;;8.20;99.90;;;8.21;100.00;100450.41;4962795;28;20252;-73
2023/01/07 06:06:55;;;;;;;12.80;2.85;;;8.20;99.90;;;8.19;100.00;100453.00;4962475;28;20300;-72
2023/01/07 06:09:22;;;;;;;9.90;2.22;;;8.20;99.90;;;8.19;100.00;100454.75;4965973;28;20269;-73
2023/01/07 06:11:49;;;;;;;10.68;2.38;;;8.20;99.90;;;8.22;100.00;100462.72;4971990;28;20276;-72
2023/01/07 06:14:17;;;;;;;14.00;3.20;;;8.20;99.90;;;8.24;100.00;100455.72;4966426;28;20256;-80
2023/01/07 06:16:44;;;;;;;10.18;2.40;;;8.20;99.90;;;8.24;100.00;100453.09;4959751;28;20298;-78
2023/01/07 06:19:11;;;;;;;7.68;1.92;;;8.20;99.90;;;8.22;100.00;100454.81;4965434;28;20253;-81
2023/01/07 06:21:38;;;;;;;11.35;2.63;;;8.20;99.90;;;8.23;100.00;100451.31;4969404;28;20228;-77
2023/01/07 06:24:06;;;;;;;6.75;1.58;;;8.20;99.90;;;8.22;100.00;100449.53;4957273;28;20303;-74
2023/01/07 06:26:33;;;;;;;10.68;2.47;;;8.20;99.90;;;8.23;100.00;100446.03;4967957;28;20236;-75
2023/01/07 06:29:00;;;;;;;9.07;2.15;;;8.20;99.90;;;8.21;100.00;100448.66;4965077;28;20292;-77
2023/01/07 06:31:27;;;;;;;11.95;2.63;;;8.20;99.90;;;8.20;100.00;100444.25;4962788;28;20757;-78
2023/01/07 06:33:54;;;;;;;3.03;0.70;;;8.20;99.90;;;8.19;100.00;100441.59;4970641;28;20603;-77
2023/01/07 06:36:21;;;;;;;9.48;2.13;;;8.20;99.90;;;8.22;100.00;100444.28;4967398;28;20228;-78
2023/01/07 06:38:48;;;;;;;13.15;2.90;;;8.20;99.90;;;8.18;100.00;100434.53;4963661;28;20234;-76
2023/01/07 06:41:15;;;;;;;11.57;2.58;;;8.20;99.90;;;8.16;100.00;100437.16;4965114;28;20328;-74
2023/01/07 06:43:42;;;;;;;14.75;3.33;;;8.20;99.90;;;8.16;100.00;100437.16;4960998;28;20652;-74
2023/01/07 06:46:09;;;;;;;17.55;3.78;;;8.20;99.90;;;8.16;100.00;100429.25;4959772;28;20308;-79
2023/01/07 06:48:36;;;;;;;12.80;2.97;;;8.20;99.90;;;8.15;100.00;100421.31;4961958;28;20237;-74
2023/01/07 06:51:03;;;;;;;9.88;2.30;;;8.10;99.90;;;8.13;100.00;100429.19;4962263;28;20336;-75
2023/01/07 06:53:31;;;;;;;13.10;2.95;;;8.10;99.90;;;8.11;100.00;100423.00;4961429;28;20233;-78
2023/01/07 06:55:57;;;;;;;12.30;2.70;;;8.10;99.90;;;8.11;100.00;100416.84;4959507;28;20772;-76
2023/01/07 06:58:24;;;;;;;11.07;2.45;;;8.10;99.90;;;8.10;100.00;100420.34;4959638;28;20264;-77
2023/01/07 07:00:51;;;;;;;11.77;2.75;;;8.10;99.90;;;8.08;100.00;100415.03;4957646;28;20331;-76
2023/01/07 07:03:18;;;;;;;8.27;1.90;;;8.10;99.90;;;8.07;100.00;100415.00;4963182;28;20372;-78
2023/01/07 07:05:45;;;;;;;12.55;2.70;;;8.10;99.90;;;8.07;100.00;100417.66;4964299;28;20891;-77
2023/01/07 07:08:12;;;;;;;11.50;2.63;;;8.10;99.90;;;8.08;100.00;100419.41;4963414;28;20261;-76
2023/01/07 07:10:39;;;;;;;13.05;2.95;;;8.10;99.90;;;8.06;100.00;100422.03;4968718;28;20328;-77
2023/01/07 07:13:07;;;;;;;7.85;1.77;;;8.10;99.90;;;8.05;100.00;100417.63;4964926;28;20316;-76
2023/01/07 07:15:34;;;;;;;9.30;2.08;;;8.10;99.90;;;8.03;100.00;100408.81;4964487;28;20718;-76
2023/01/07 07:18:01;;;;;;;11.18;2.55;;;8.10;99.90;;;8.03;100.00;100414.06;4964174;28;20233;-76
2023/01/07 07:20:28;;;;;;;11.98;2.88;;;8.00;99.90;;;8.05;100.00;100414.09;4966031;28;20229;-78
2023/01/07 07:22:55;;;;;;;10.00;2.22;;;8.10;99.90;;;8.05;100.00;100412.34;4967262;28;20285;-79
2023/01/07 07:25:22;;;;;;;8.35;1.88;;;8.10;99.90;;;8.03;100.00;100414.97;4967265;28;20249;-77
2023/01/07 07:27:49;;;;;;;8.02;1.77;;;8.10;99.90;;;8.04;100.00;100413.22;4974294;28;20229;-77
2023/01/07 07:30:16;;;;;;;5.50;1.27;;;8.00;99.90;;;8.03;100.00;100414.97;4973380;28;20645;-77
2023/01/07 07:32:43;;;;;;;9.05;2.20;;;8.00;99.90;;;8.05;100.00;100408.84;4971518;28;20267;-79
2023/01/07 07:35:11;;;;;;;8.25;1.98;;;8.00;99.90;;;8.04;100.00;100405.31;4978919;28;20295;-77
2023/01/07 07:37:38;;;;;;;12.57;2.85;;;8.10;99.90;;;8.05;100.00;100407.09;4972333;28;20232;-77
2023/01/07 07:40:07;;;;;;;9.48;2.28;;;8.10;99.90;;;8.06;100.00;100405.34;4972806;28;20264;-77
2023/01/07 07:42:36;;;;;;;4.35;1.05;;;8.10;99.90;;;8.06;100.00;100400.06;4972307;28;20715;-81
2023/01/07 07:45:23;;;;;;;3.15;0.95;;;8.10;99.90;;;8.07;100.00;100404.47;4966416;28;20613;-77
2023/01/07 07:47:50;;;;;;;6.60;1.45;;;8.10;99.90;;;8.08;100.00;100401.88;4973387;28;20300;-77
2023/01/07 07:50:17;;;;;;;7.78;1.75;;;8.10;99.90;;;8.07;100.00;100397.47;4969967;28;20233;-79
2023/01/07 07:52:45;;;;;;;7.97;1.83;;;8.10;99.90;;;8.08;100.00;100396.59;4973397;28;20256;-77
2023/01/07 07:55:12;;;;;;;5.32;1.38;;;8.10;99.90;;;8.10;100.00;100388.72;4974414;28;20296;-77
2023/01/07 07:57:54;;;;;;;10.77;2.38;;;8.10;99.90;;;8.10;100.00;100386.97;4971643;28;20247;-77
2023/01/07 08:00:21;;;;;;;4.88;1.15;;;8.10;99.90;;;8.08;100.00;100391.34;4971919;28;20296;-78
2023/01/07 08:02:49;;;;;;;5.65;1.33;;;8.10;99.90;;;8.09;100.00;100386.97;4965485;28;20233;-77
2023/01/07 08:05:16;;;;;;;7.20;1.63;;;8.10;99.90;;;8.10;100.00;100388.72;4973659;28;20256;-77
2023/01/07 08:07:43;;;;;;;17.25;3.75;;;8.10;99.90;;;8.14;100.00;100393.19;4971084;28;20677;-78
2023/01/07 08:10:10;;;;;;;8.82;2.10;;;8.10;99.90;;;8.13;100.00;100388.78;4970462;28;20229;-77
2023/01/07 08:12:38;;;;;;;5.05;1.25;;;8.10;99.90;;;8.15;100.00;100387.97;4966775;28;20229;-77
2023/01/07 08:15:06;;;;;;;8.30;1.92;;;8.20;99.90;;;8.19;100.00;100391.53;4967965;28;20237;-77
2023/01/07 08:17:35;;;;;;;11.10;2.58;;;8.20;99.90;;;8.18;100.00;100388.00;4968655;28;20296;-78
2023/01/07 08:20:06;;;;;;;8.88;2.03;;;8.20;99.90;;;8.20;100.00;100383.66;4972155;28;20268;-77
2023/01/07 08:22:33;;;;;;;10.93;2.53;;;8.20;99.90;;;8.22;100.00;100388.94;4972383;28;20673;-77
2023/01/07 08:25:01;;;;;;;8.43;2.10;;;8.20;99.90;;;8.23;100.00;100388.97;4966367;28;20241;-79
2023/01/07 08:27:28;;;;;;;6.97;1.58;;;8.20;99.90;;;8.24;100.00;100380.22;4972965;28;20237;-77
2023/01/07 08:29:55;;;;;;;7.38;1.73;;;8.20;99.90;;;8.26;100.00;100382.88;4970488;28;20229;-85
2023/01/07 08:32:22;;;;;;;6.80;1.60;;;8.30;99.90;;;8.26;100.00;100385.50;4988034;28;20241;-79
2023/01/07 08:34:49;;;;;;;8.40;2.00;;;8.30;99.90;;;8.27;100.00;100384.66;4965522;28;20577;-77
2023/01/07 08:37:16;;;;;;;7.82;1.88;;;8.30;99.90;;;8.28;100.00;100383.78;4959283;28;20285;-77
2023/01/07 08:39:44;;;;;;;8.82;2.15;;;8.30;99.90;;;8.32;100.00;100385.63;4956650;28;20237;-77
2023/01/07 08:42:10;;;;;;;11.20;2.65;;;8.30;99.90;;;8.32;100.00;100389.13;4958239;28;20228;-82
2023/01/07 08:44:38;;;;;;;11.80;2.78;;;8.30;99.90;;;8.33;100.00;100377.78;4959829;28;20225;-78
2023/01/07 08:47:05;;;;;;;8.40;2.00;;;8.30;99.90;;;8.35;100.00;100390.97;4969830;28;20237;-77
2023/01/07 08:49:32;;;;;;;8.95;2.10;;;8.30;99.90;;;8.37;100.00;100380.47;4960713;28;20356;-78
2023/01/07 08:51:59;;;;;;;5.28;1.27;;;8.40;99.90;;;8.39;100.00;100378.72;4962658;28;20660;-77
2023/01/07 08:54:26;;;;;;;6.05;1.40;;;8.40;99.90;;;8.45;100.00;100378.84;4967837;28;20236;-79
2023/01/07 08:56:53;;;;;;;15.48;3.47;;;8.40;99.90;;;8.47;100.00;100378.00;4969385;28;20291;-78
2023/01/07 08:59:20;;;;;;;4.70;1.20;;;8.40;99.90;;;8.56;100.00;100372.88;4969452;28;20287;-80
2023/01/07 09:01:47;;;;;;;8.55;2.58;;;8.50;99.90;;;8.61;100.00;100375.59;4971215;28;20323;-78
2023/01/07 09:04:14;;;;;;;4.00;1.38;;;8.60;99.90;;;8.65;100.00;100367.75;4971400;28;20237;-77
2023/01/07 09:06:41;;;;;;;6.07;1.52;;;8.60;99.90;;;8.71;100.00;100369.59;4970337;28;20374;-77
2023/01/07 09:09:10;;;;;;;7.40;1.85;;;8.70;99.90;;;8.77;100.00;100368.81;4966797;28;20225;-78
2023/01/07 09:11:37;;;;;;;9.40;2.25;;;8.70;99.90;;;8.85;100.00;100367.16;4968754;28;20225;-78
2023/01/07 09:14:04;;;;;;;13.10;2.95;;;8.80;99.90;;;8.92;100.00;100366.41;4970065;28;20241;-79
2023/01/07 09:16:32;;;;;;;8.50;2.15;;;8.90;99.90;;;8.90;100.00;100358.47;4968878;28;20268;-81
2023/01/07 09:18:59;;;;;;;8.35;1.90;;;8.90;99.90;;;8.95;100.00;100353.25;4968940;28;20237;-82
2023/01/07 09:21:26;;;;;;;8.02;2.00;;;8.90;99.90;;;8.92;100.00;100350.56;4963108;28;20775;-78
2023/01/07 09:23:53;;;;;;;6.85;2.05;;;8.90;99.90;;;9.02;100.00;100344.56;4971858;28;20292;-78
2023/01/07 09:26:20;;;;;;;3.75;1.13;;;9.00;99.90;;;9.03;100.00;100346.34;4986778;28;20292;-79
2023/01/07 09:28:47;;;;;;;11.82;2.85;;;9.00;99.90;;;9.02;100.00;100336.66;4967776;28;20236;-79
2023/01/07 09:34:00;;;;;;;8.02;2.35;;;9.10;99.90;;;9.11;100.00;100341.19;5390038;23;20232;-77
2023/01/07 09:36:27;;;;;;;11.30;2.58;;;9.10;99.90;;;9.19;100.00;100329.88;4978221;28;20335;-76
2023/01/07 09:38:54;;;;;;;4.85;1.20;;;9.20;99.90;;;9.17;100.00;100336.88;4978613;28;20236;-77
2023/01/07 09:41:43;;;;;;;4.38;1.13;;;9.10;99.90;;;9.19;100.00;100340.44;4984358;28;20247;-77
2023/01/07 09:44:47;;;;;;;9.50;2.30;;;8.80;99.90;;;9.24;100.00;100333.44;4985185;28;20224;-77
2023/01/07 09:47:18;;;;;;;9.93;2.70;;;9.20;99.90;;;9.26;100.00;100326.44;4986210;28;20236;-77
2023/01/07 09:49:50;;;;;;;17.75;4.03;;;9.20;99.90;;;9.36;100.00;100327.44;4981192;28;20264;-76
2023/01/07 09:52:21;;;;;;;6.22;1.42;;;9.30;99.90;;;9.36;100.00;100319.53;4982877;28;20315;-77
2023/01/07 09:54:57;;;;;;;4.97;1.20;;;9.40;99.90;;;9.40;100.00;100320.44;4987433;28;20235;-77
2023/01/07 09:57:26;;;;;;;3.03;0.80;;;9.40;99.90;;;9.46;100.00;100320.53;4988084;28;20236;-77
2023/01/07 09:59:54;;;;;;;5.25;1.30;;;9.40;99.90;;;9.47;100.00;100317.91;4986850;28;20312;-76
2023/01/07 10:02:39;;;;;;;9.50;2.60;;;9.40;99.90;;;9.55;100.00;100321.50;4983490;28;20265;-76
2023/01/07 10:05:27;;;;;;;13.20;3.08;;;9.50;99.90;;;9.57;100.00;100305.69;4994698;28;20256;-76
2023/01/07 10:08:31;;;;;;;9.13;2.10;;;9.50;99.90;;;9.56;100.00;100294.25;4986061;28;20256;-77
2023/01/07 10:11:27;;;;;;;8.25;1.98;;;9.50;99.90;;;9.60;100.00;100289.88;4977264;28;20232;-76
2023/01/07 10:14:29;;;;;;;7.65;1.77;;;9.60;99.90;;;9.62;100.00;100281.09;4982799;28;20237;-77
2023/01/07 10:17:24;;;;;;;12.15;2.65;;;9.60;99.90;;;9.62;100.00;100270.53;4981587;28;20279;-78
2023/01/07 10:20:32;;;;;;;10.60;2.13;;;9.60;99.90;;;9.67;100.00;100272.34;4971856;28;20229;-77
2023/01/07 10:23:30;;;;;;;20.77;4.07;;;9.60;99.90;;;9.67;100.00;100254.75;4966855;28;20307;-78
2023/01/07 10:26:00;;;;;;;12.15;2.63;;;9.60;99.90;;;9.72;100.00;100255.69;4979522;28;20290;-77
2023/01/07 10:28:46;;;;;;;9.48;2.20;;;9.70;99.90;;;9.71;100.00;100248.63;4983484;28;20243;-77
2023/01/07 10:31:32;;;;;;;33.22;5.65;;;10.10;99.90;;;9.77;100.00;100242.50;4981367;28;20582;-77
2023/01/07 10:34:41;;;;;;;12.57;2.72;;;9.60;99.90;;;9.71;100.00;100221.34;4975796;28;20314;-77
2023/01/07 10:37:45;;;;;;;7.70;1.90;;;9.70;99.90;;;9.77;100.00;100231.94;4928016;28;20315;-77
2023/01/07 10:40:35;;;;;;;21.92;3.88;;;9.60;99.90;;;9.82;100.00;100227.59;4971818;28;20275;-77
2023/01/07 10:43:36;;;;;;;17.75;3.20;;;9.80;99.90;;;9.79;100.00;100212.59;4981538;28;20234;-78
2023/01/07 10:46:40;;;;;;;20.77;3.72;;;9.80;99.90;;;9.83;100.00;100214.41;4987334;28;20286;-76